Terminal Aerodrome Forecast
Issued by NWS Wilmington, OH

Home | Current Version | Previous Version | Text Only | Print | Product List | Glossary On
Versions: 1 2 3 4 5 6 7 8 9 10 11 12 13 14 15 16 17 18 19 20 21 22 23
000
FTUS41 KILN 030733 AAB
TAFDAY
TAF AMD
KDAY 030733Z 0308/0406 22012KT 5SM TSRA BKN035CB
      TEMPO 0308/0310 34020G32KT 2SM TSRA BKN025CB
     FM031100 24012G18KT P6SM BKN050
     FM031800 27014G24KT P6SM VCTS BKN050CB
     FM032200 29012G18KT P6SM BKN050
     FM040100 32008KT P6SM SCT050=

USA.gov is the U.S. government's official web portal to all federal, state and local government web resources and services.